createdAt,value
2018-02-24T00:02:01.099Z,68.03
2018-02-24T00:04:29.513Z,69.78
2018-02-24T00:06:57.919Z,68.65
2018-02-24T00:09:26.246Z,70.32
2018-02-24T00:11:54.598Z,68.85
2018-02-24T00:14:23.011Z,76.10
2018-02-24T00:16:51.360Z,69.57
2018-02-24T00:19:19.682Z,67.47
2018-02-24T00:21:48.035Z,68.28
2018-02-24T00:24:16.364Z,71.45
2018-02-24T00:26:44.770Z,76.68
2018-02-24T00:29:13.175Z,76.77
2018-02-24T00:31:41.598Z,65.90
2018-02-24T00:34:09.918Z,69.22
2018-02-24T00:36:38.261Z,68.50
2018-02-24T00:39:06.588Z,71.97
2018-02-24T00:41:34.942Z,68.93
2018-02-24T00:44:03.288Z,66.35
2018-02-24T00:46:31.636Z,70.20
2018-02-24T00:48:59.974Z,69.12
2018-02-24T00:51:28.394Z,65.87
2018-02-24T00:53:56.801Z,66.22
2018-02-24T00:56:25.186Z,68.68
2018-02-24T00:58:53.504Z,73.45
2018-02-24T01:01:21.935Z,71.78
2018-02-24T01:03:50.247Z,67.07
2018-02-24T01:06:18.607Z,70.83
2018-02-24T01:08:47.043Z,69.27
2018-02-24T01:11:15.411Z,72.73
2018-02-24T01:13:43.754Z,71.85
2018-02-24T01:16:12.105Z,71.47
2018-02-24T01:18:40.443Z,75.62
2018-02-24T01:21:08.815Z,71.30
2018-02-24T01:23:37.118Z,66.18
2018-02-24T01:26:05.474Z,70.07
2018-02-24T01:28:33.822Z,68.47
2018-02-24T01:31:02.190Z,73.43
2018-02-24T01:33:30.518Z,70.28
2018-02-24T01:35:58.975Z,68.75
2018-02-24T01:38:27.295Z,66.82
2018-02-24T01:40:55.630Z,63.55
2018-02-24T01:43:23.976Z,81.80
2018-02-24T01:45:52.399Z,70.63
2018-02-24T01:48:20.726Z,68.70
2018-02-24T01:50:49.096Z,65.10
2018-02-24T01:53:17.423Z,66.10
2018-02-24T01:55:45.822Z,67.68
2018-02-24T01:58:14.161Z,70.93
2018-02-24T02:00:42.779Z,72.32
2018-02-24T02:03:11.103Z,74.70
2018-02-24T02:05:39.458Z,72.20
2018-02-24T02:08:07.783Z,73.22
2018-02-24T02:10:36.138Z,71.65
2018-02-24T02:13:04.459Z,75.85
2018-02-24T02:15:32.834Z,71.97
2018-02-24T02:18:01.256Z,74.87
2018-02-24T02:20:29.698Z,76.93
2018-02-24T02:22:58.023Z,73.93
2018-02-24T02:25:26.383Z,68.95
2018-02-24T02:27:54.730Z,80.80
2018-02-24T02:30:23.123Z,71.30
2018-02-24T02:32:51.507Z,77.62
2018-02-24T02:35:19.853Z,75.90
2018-02-24T02:37:48.175Z,74.80
2018-02-24T02:40:16.560Z,78.65
2018-02-24T02:42:44.940Z,72.20
2018-02-24T02:45:13.391Z,77.18
2018-02-24T02:47:41.718Z,76.17
2018-02-24T02:50:10.130Z,79.23
2018-02-24T02:52:38.467Z,78.05
2018-02-24T02:55:07.034Z,80.10
2018-02-24T02:57:35.412Z,78.03
2018-02-24T03:00:03.743Z,72.50
2018-02-24T03:02:32.095Z,71.70
2018-02-24T03:05:00.507Z,84.07
2018-02-24T03:07:28.859Z,81.47
2018-02-24T03:09:57.272Z,83.07
2018-02-24T03:12:25.595Z,80.00
2018-02-24T03:14:53.967Z,86.17
2018-02-24T03:17:22.338Z,80.15
2018-02-24T03:19:50.716Z,80.85
2018-02-24T03:24:53.726Z,80.95
2018-02-24T03:27:22.096Z,84.32
2018-02-24T03:29:50.408Z,78.93
2018-02-24T03:32:18.763Z,76.57
2018-02-24T03:34:47.103Z,78.13
2018-02-24T03:37:15.550Z,79.33
2018-02-24T03:39:43.878Z,79.70
2018-02-24T03:42:12.234Z,81.85
2018-02-24T03:44:40.582Z,76.35
2018-02-24T03:47:09.027Z,76.55
2018-02-24T03:49:37.401Z,79.60
2018-02-24T03:52:05.726Z,81.93
2018-02-24T03:54:34.075Z,75.27
2018-02-24T03:57:02.406Z,85.77
2018-02-24T03:59:30.779Z,77.60
2018-02-24T04:01:59.156Z,77.77
2018-02-24T04:04:27.489Z,75.05
2018-02-24T04:06:55.827Z,78.85
2018-02-24T04:09:24.225Z,80.75
2018-02-24T04:11:52.607Z,81.10
2018-02-24T04:14:20.915Z,79.03
2018-02-24T04:16:49.296Z,81.40
2018-02-24T04:19:17.695Z,84.45
2018-02-24T04:21:46.047Z,75.75
2018-02-24T04:24:14.382Z,80.80
2018-02-24T04:26:42.732Z,83.57
2018-02-24T04:29:11.082Z,79.23
2018-02-24T04:31:39.528Z,77.57
2018-02-24T04:34:07.905Z,78.68
2018-02-24T04:36:36.258Z,79.68
2018-02-24T04:39:04.588Z,82.28
2018-02-24T04:41:32.951Z,87.93
2018-02-24T04:44:01.287Z,81.97
2018-02-24T04:46:29.638Z,76.35
2018-02-24T04:48:57.971Z,88.85
2018-02-24T04:51:26.310Z,79.50
2018-02-24T04:53:54.695Z,81.43
2018-02-24T04:56:23.039Z,82.23
2018-02-24T04:58:51.394Z,80.27
2018-02-24T05:01:19.730Z,81.82
2018-02-24T05:03:48.094Z,77.12
2018-02-24T05:06:16.454Z,80.32
2018-02-24T05:08:44.794Z,81.68
2018-02-24T05:11:13.143Z,78.80
2018-02-24T05:13:41.481Z,78.25
2018-02-24T05:16:09.888Z,80.55
2018-02-24T05:18:38.525Z,73.12
2018-02-24T05:21:06.892Z,76.13
2018-02-24T05:23:35.237Z,76.78
2018-02-24T05:26:03.584Z,79.32
2018-02-24T05:28:31.921Z,78.32
2018-02-24T05:31:00.383Z,73.68
2018-02-24T05:33:28.747Z,75.12
2018-02-24T05:35:57.098Z,79.05
2018-02-24T05:38:25.542Z,76.95
2018-02-24T05:40:53.881Z,77.20
2018-02-24T05:43:22.214Z,74.70
2018-02-24T05:45:50.634Z,77.10
2018-02-24T05:48:19.017Z,90.33
2018-02-24T05:50:47.402Z,74.35
2018-02-24T05:53:15.785Z,76.80
2018-02-24T05:55:44.189Z,71.68
2018-02-24T05:58:12.569Z,78.40
2018-02-24T06:00:40.905Z,75.07
2018-02-24T06:03:09.237Z,76.15
2018-02-24T06:05:37.660Z,70.32
2018-02-24T06:08:05.997Z,77.37
2018-02-24T06:10:34.326Z,73.93
2018-02-24T06:13:02.659Z,75.63
2018-02-24T06:15:31.002Z,71.03
2018-02-24T06:17:59.338Z,74.25
2018-02-24T06:20:27.776Z,72.43
2018-02-24T06:22:56.153Z,77.85
2018-02-24T06:25:24.503Z,73.87
2018-02-24T06:27:52.838Z,76.93
2018-02-24T06:30:21.195Z,70.85
2018-02-24T06:32:49.620Z,81.40
2018-02-24T06:35:17.974Z,70.30
2018-02-24T06:37:46.295Z,71.97
2018-02-24T06:40:14.639Z,69.10
2018-02-24T06:42:42.977Z,63.80
2018-02-24T06:45:11.351Z,69.77
2018-02-24T06:47:39.699Z,76.97
2018-02-24T06:50:08.039Z,80.80
2018-02-24T06:52:36.364Z,70.60
2018-02-24T06:55:04.722Z,75.18
2018-02-24T06:57:33.046Z,73.47
2018-02-24T07:00:01.402Z,70.72
2018-02-24T07:02:29.854Z,75.80
2018-02-24T07:04:58.190Z,71.07
2018-02-24T07:07:26.562Z,71.75
2018-02-24T07:09:54.914Z,75.82
2018-02-24T07:12:23.226Z,71.25
2018-02-24T07:14:51.644Z,72.73
2018-02-24T07:17:19.985Z,69.13
2018-02-24T07:19:48.318Z,71.97
2018-02-24T07:22:16.652Z,73.00
2018-02-24T07:24:45.016Z,70.03
2018-02-24T07:27:13.437Z,73.45
2018-02-24T07:29:42.592Z,75.15
2018-02-24T07:32:10.955Z,72.30
2018-02-24T07:34:39.307Z,68.97
2018-02-24T07:37:07.659Z,64.10
2018-02-24T07:39:36.013Z,71.30
2018-02-24T07:42:04.366Z,68.30
2018-02-24T07:44:32.709Z,64.15
2018-02-24T07:47:01.070Z,62.40
2018-02-24T07:49:29.462Z,71.47
2018-02-24T07:51:57.806Z,72.00
2018-02-24T07:54:26.139Z,67.90
2018-02-24T07:56:54.747Z,65.40
2018-02-24T07:59:23.183Z,67.80
2018-02-24T08:01:51.594Z,66.95
2018-02-24T08:04:19.919Z,56.80
2018-02-24T08:06:48.348Z,66.03
2018-02-24T08:09:16.668Z,67.93
2018-02-24T08:11:45.020Z,64.30
2018-02-24T08:14:13.355Z,63.90
2018-02-24T08:16:41.711Z,70.22
2018-02-24T08:19:10.047Z,66.30
2018-02-24T08:21:38.415Z,57.70
2018-02-24T08:24:06.773Z,60.97
2018-02-24T08:26:35.162Z,58.90
2018-02-24T08:29:03.520Z,57.35
2018-02-24T08:31:31.876Z,64.40
2018-02-24T08:34:00.207Z,61.83
2018-02-24T08:36:28.562Z,59.50
2018-02-24T08:38:56.961Z,75.55
2018-02-24T08:41:25.342Z,57.65
2018-02-24T08:43:53.717Z,64.22
2018-02-24T08:46:22.031Z,63.50
2018-02-24T08:48:50.382Z,55.33
2018-02-24T08:51:18.715Z,65.57
2018-02-24T08:53:47.067Z,57.70
2018-02-24T08:56:15.391Z,55.70
2018-02-24T08:58:43.855Z,64.47
2018-02-24T09:01:12.224Z,54.28
2018-02-24T09:03:40.578Z,59.75
2018-02-24T09:06:08.904Z,58.22
2018-02-24T09:08:37.265Z,56.92
2018-02-24T09:11:05.662Z,61.37
2018-02-24T09:13:34.010Z,62.20
2018-02-24T09:16:02.397Z,57.10
2018-02-24T09:18:30.783Z,60.40
2018-02-24T09:20:59.119Z,59.70
2018-02-24T09:23:27.467Z,61.35
2018-02-24T09:25:55.945Z,57.72
2018-02-24T09:28:24.312Z,53.60
2018-02-24T09:30:52.635Z,50.67
2018-02-24T09:33:20.983Z,54.83
2018-02-24T09:35:49.362Z,58.03
2018-02-24T09:38:17.726Z,54.90
2018-02-24T09:40:46.188Z,55.72
2018-02-24T09:43:14.586Z,57.55
2018-02-24T09:45:42.907Z,51.00
2018-02-24T09:48:11.326Z,54.00
2018-02-24T09:50:39.644Z,46.93
2018-02-24T09:53:08.082Z,49.47
2018-02-24T09:55:36.488Z,53.20
2018-02-24T09:58:04.841Z,52.22
2018-02-24T10:00:33.188Z,45.63
2018-02-24T10:03:01.561Z,47.08
2018-02-24T10:05:29.966Z,47.62
2018-02-24T10:07:58.318Z,50.45
2018-02-24T10:10:26.659Z,45.50
2018-02-24T10:12:55.022Z,47.77
2018-02-24T10:15:23.327Z,47.28
2018-02-24T10:17:51.675Z,47.05
2018-02-24T10:20:20.052Z,50.47
2018-02-24T10:22:48.430Z,40.33
2018-02-24T10:25:16.755Z,47.33
2018-02-24T10:27:45.166Z,44.72
2018-02-24T10:30:13.542Z,42.38
2018-02-24T10:32:41.959Z,42.73
2018-02-24T10:35:10.258Z,43.83
2018-02-24T10:37:38.600Z,47.30
2018-02-24T10:40:06.955Z,43.38
2018-02-24T10:42:35.308Z,49.35
2018-02-24T10:45:03.666Z,41.03
2018-02-24T10:47:32.868Z,39.47
2018-02-24T10:50:01.202Z,46.97
2018-02-24T10:52:29.547Z,41.63
2018-02-24T10:54:57.883Z,40.53
2018-02-24T10:57:26.247Z,44.33
2018-02-24T10:59:54.631Z,43.75
2018-02-24T11:02:22.960Z,46.03
2018-02-24T11:04:51.387Z,38.85
2018-02-24T11:07:19.709Z,36.57
2018-02-24T11:09:48.029Z,41.47
2018-02-24T11:12:16.378Z,41.17
2018-02-24T11:14:44.698Z,39.60
2018-02-24T11:17:13.030Z,36.58
2018-02-24T11:19:41.452Z,46.20
2018-02-24T11:22:09.784Z,36.00
2018-02-24T11:24:38.135Z,35.47
2018-02-24T11:27:06.463Z,36.05
2018-02-24T11:29:34.800Z,40.67
2018-02-24T11:32:03.199Z,35.40
2018-02-24T11:34:31.635Z,41.00
2018-02-24T11:36:59.945Z,36.03
2018-02-24T11:39:33.964Z,41.47
2018-02-24T11:42:02.283Z,44.83
2018-02-24T11:44:30.635Z,36.00
2018-02-24T11:46:59.044Z,39.45
2018-02-24T11:49:27.395Z,36.17
2018-02-24T11:51:55.799Z,32.65
2018-02-24T11:54:24.176Z,40.90
2018-02-24T11:56:52.546Z,39.03
2018-02-24T11:59:20.896Z,32.38
2018-02-24T12:01:49.226Z,33.20
2018-02-24T12:04:17.569Z,34.05
2018-02-24T12:06:45.898Z,32.67
2018-02-24T12:09:14.244Z,31.52
2018-02-24T12:11:42.640Z,32.63
2018-02-24T12:14:11.006Z,27.17
2018-02-24T12:19:14.110Z,34.10
2018-02-24T12:21:42.415Z,30.12
2018-02-24T12:24:10.754Z,31.48
2018-02-24T12:26:39.136Z,31.55
2018-02-24T12:29:07.470Z,25.17
2018-02-24T12:31:35.800Z,31.67
2018-02-24T12:34:04.119Z,31.42
2018-02-24T12:36:32.455Z,28.58
2018-02-24T12:39:00.804Z,31.70
2018-02-24T12:41:29.141Z,30.00
2018-02-24T12:43:57.463Z,32.60
2018-02-24T12:46:25.787Z,27.62
2018-02-24T12:48:54.131Z,27.35
2018-02-24T12:51:22.451Z,28.40
2018-02-24T12:53:50.805Z,25.45
2018-02-24T12:56:19.118Z,23.87
2018-02-24T12:58:47.465Z,32.10
2018-02-24T13:01:15.786Z,25.98
2018-02-24T13:03:44.138Z,28.05
2018-02-24T13:06:12.466Z,35.17
2018-02-24T13:08:40.807Z,25.33
2018-02-24T13:11:09.166Z,26.75
2018-02-24T13:13:37.524Z,24.85
2018-02-24T13:16:05.847Z,27.97
2018-02-24T13:18:34.245Z,30.58
2018-02-24T13:21:02.572Z,32.45
2018-02-24T13:23:30.896Z,34.50
2018-02-24T13:25:59.226Z,32.08
2018-02-24T13:28:27.779Z,30.42
2018-02-24T13:30:56.158Z,31.20
2018-02-24T13:33:24.483Z,30.08
2018-02-24T13:35:53.825Z,32.53
2018-02-24T13:38:22.136Z,32.37
2018-02-24T13:40:50.485Z,31.98
2018-02-24T13:43:18.968Z,32.15
2018-02-24T13:45:47.313Z,31.12
2018-02-24T13:48:15.705Z,29.37
2018-02-24T13:50:44.000Z,33.78
2018-02-24T13:53:12.306Z,32.85
2018-02-24T13:55:40.666Z,30.08
2018-02-24T13:58:09.002Z,31.37
2018-02-24T14:00:37.338Z,32.97
2018-02-24T14:03:05.715Z,31.23
2018-02-24T14:05:34.030Z,32.30
2018-02-24T14:08:02.368Z,33.75
2018-02-24T14:10:30.700Z,33.22
2018-02-24T14:12:59.099Z,32.05
2018-02-24T14:15:27.447Z,29.75
2018-02-24T14:17:55.776Z,32.25
2018-02-24T14:20:24.132Z,31.00
2018-02-24T14:22:52.453Z,34.17
2018-02-24T14:25:20.855Z,28.15
2018-02-24T14:27:49.171Z,34.30
2018-02-24T14:30:17.523Z,34.33
2018-02-24T14:32:45.855Z,36.67
2018-02-24T14:35:14.198Z,33.20
2018-02-24T14:37:42.524Z,32.38
2018-02-24T14:40:10.878Z,41.35
2018-02-24T14:42:39.295Z,34.40
2018-02-24T14:45:07.646Z,33.33
2018-02-24T14:47:35.973Z,29.55
2018-02-24T14:50:04.320Z,36.65
2018-02-24T14:52:32.658Z,33.60
2018-02-24T14:55:01.001Z,28.90
2018-02-24T14:57:29.327Z,32.15
2018-02-24T14:59:57.672Z,32.22
2018-02-24T15:02:25.998Z,40.03
2018-02-24T15:04:54.346Z,33.00
2018-02-24T15:07:22.663Z,32.95
2018-02-24T15:09:51.085Z,30.75
2018-02-24T15:12:19.403Z,30.40
2018-02-24T15:14:47.732Z,32.03
2018-02-24T15:17:16.063Z,33.75
2018-02-24T15:19:44.409Z,33.22
2018-02-24T15:22:12.745Z,31.77
2018-02-24T15:24:41.082Z,33.70
2018-02-24T15:27:09.440Z,35.50
2018-02-24T15:29:38.419Z,36.03
2018-02-24T15:32:06.796Z,36.85
2018-02-24T15:34:35.120Z,33.00
2018-02-24T15:37:03.475Z,34.70
2018-02-24T15:39:31.879Z,38.60
2018-02-24T15:42:00.283Z,38.50
2018-02-24T15:44:28.663Z,37.55
2018-02-24T15:46:57.065Z,34.10
2018-02-24T15:49:25.386Z,43.20
2018-02-24T15:51:53.819Z,31.20
2018-02-24T15:54:22.119Z,34.00
2018-02-24T15:56:50.455Z,27.10
2018-02-24T15:59:18.854Z,35.13
2018-02-24T16:01:47.294Z,32.37
2018-02-24T16:04:15.685Z,30.70
2018-02-24T16:06:44.068Z,31.73
2018-02-24T16:09:12.427Z,46.47
2018-02-24T16:11:40.734Z,40.23
2018-02-24T16:14:09.123Z,42.60
2018-02-24T16:16:37.432Z,33.40
2018-02-24T16:19:06.034Z,30.67
2018-02-24T16:21:34.379Z,39.23
2018-02-24T16:24:02.739Z,32.33
2018-02-24T16:26:31.036Z,28.40
2018-02-24T16:28:59.384Z,31.97
2018-02-24T16:31:27.687Z,42.10
2018-02-24T16:33:56.103Z,31.70
2018-02-24T16:36:24.528Z,29.00
2018-02-24T16:38:52.855Z,27.37
2018-02-24T16:41:21.354Z,28.53
2018-02-24T16:43:49.695Z,32.70
2018-02-24T16:46:18.042Z,30.73
2018-02-24T16:48:46.376Z,25.77
2018-02-24T16:51:14.693Z,29.70
2018-02-24T16:53:43.146Z,26.37
2018-02-24T16:56:11.464Z,27.20
2018-02-24T16:58:39.792Z,31.30
2018-02-24T17:01:08.217Z,31.48
2018-02-24T17:03:36.552Z,29.83
2018-02-24T17:06:04.879Z,34.15
2018-02-24T17:08:33.301Z,25.73
2018-02-24T17:11:01.689Z,32.88
2018-02-24T17:13:30.064Z,32.10
2018-02-24T17:15:58.439Z,26.93
2018-02-24T17:18:26.785Z,28.57
2018-02-24T17:20:55.209Z,29.37
2018-02-24T17:23:23.615Z,33.58
2018-02-24T17:25:51.930Z,24.73
2018-02-24T17:28:20.270Z,25.70
2018-02-24T17:30:48.616Z,25.55
2018-02-24T17:33:16.958Z,25.40
2018-02-24T17:35:45.297Z,29.15
2018-02-24T17:38:13.649Z,29.25
2018-02-24T17:40:42.072Z,31.95
2018-02-24T17:43:10.418Z,28.08
2018-02-24T17:45:38.735Z,32.03
2018-02-24T17:48:07.119Z,32.63
2018-02-24T17:50:35.469Z,31.02
2018-02-24T17:53:03.849Z,29.60
2018-02-24T17:55:32.185Z,30.47
2018-02-24T17:58:00.526Z,39.13
2018-02-24T18:00:29.017Z,37.10
2018-02-24T18:02:57.370Z,42.73
2018-02-24T18:05:25.738Z,31.00
2018-02-24T18:07:54.088Z,31.20
2018-02-24T18:10:22.420Z,38.73
2018-02-24T18:12:50.787Z,38.03
2018-02-24T18:15:19.115Z,34.93
2018-02-24T18:20:15.207Z,39.88
2018-02-24T18:22:43.546Z,41.90
2018-02-24T18:25:11.883Z,36.70
2018-02-24T18:27:40.221Z,40.23
2018-02-24T18:30:08.539Z,36.50
2018-02-24T18:32:36.939Z,37.58
2018-02-24T18:35:05.283Z,38.30
2018-02-24T18:37:33.633Z,42.70
2018-02-24T18:40:01.968Z,42.70
2018-02-24T18:42:30.354Z,38.25
2018-02-24T18:44:58.698Z,37.90
2018-02-24T18:47:27.034Z,39.28
2018-02-24T18:49:55.361Z,42.00
2018-02-24T18:52:23.753Z,38.40
2018-02-24T18:54:52.072Z,36.67
2018-02-24T18:57:20.456Z,38.15
2018-02-24T18:59:48.837Z,40.53
2018-02-24T19:02:17.188Z,38.78
2018-02-24T19:04:45.527Z,40.08
2018-02-24T19:07:13.934Z,39.83
2018-02-24T19:09:42.259Z,40.38
2018-02-24T19:12:10.607Z,37.83
2018-02-24T19:14:38.927Z,34.90
2018-02-24T19:17:07.274Z,39.00
2018-02-24T19:19:35.659Z,39.53
2018-02-24T19:22:03.990Z,41.42
2018-02-24T19:24:32.382Z,37.28
2018-02-24T19:27:00.733Z,35.47
2018-02-24T19:29:29.082Z,38.08
2018-02-24T19:31:57.448Z,38.00
2018-02-24T19:34:25.799Z,38.08
2018-02-24T19:36:54.127Z,38.88
2018-02-24T19:39:22.469Z,37.42
2018-02-24T19:41:50.855Z,36.20
2018-02-24T19:44:19.341Z,37.90
2018-02-24T19:46:47.660Z,34.93
2018-02-24T19:49:15.999Z,36.03
2018-02-24T19:51:44.376Z,35.53
2018-02-24T19:54:12.814Z,30.43
2018-02-24T19:56:41.141Z,26.37
2018-02-24T19:59:09.488Z,41.53
2018-02-24T20:01:37.810Z,28.63
2018-02-24T20:04:06.162Z,29.97
2018-02-24T20:06:34.536Z,28.03
2018-02-24T20:09:02.870Z,36.77
2018-02-24T20:11:31.254Z,24.63
2018-02-24T20:13:59.683Z,28.43
2018-02-24T20:16:28.014Z,29.20
2018-02-24T20:18:56.342Z,28.30
2018-02-24T20:21:24.695Z,22.10
2018-02-24T20:23:53.086Z,31.40
2018-02-24T20:26:21.565Z,23.83
2018-02-24T20:28:49.885Z,26.43
2018-02-24T20:31:18.232Z,39.40
2018-02-24T20:33:46.671Z,29.03
2018-02-24T20:36:15.023Z,26.43
2018-02-24T20:38:43.341Z,22.77
2018-02-24T20:41:11.787Z,23.87
2018-02-24T20:43:40.138Z,25.17
2018-02-24T20:46:08.479Z,26.73
2018-02-24T20:48:36.818Z,23.73
2018-02-24T20:51:05.247Z,25.77
2018-02-24T20:53:33.582Z,30.23
2018-02-24T20:56:01.918Z,19.83
2018-02-24T20:58:30.251Z,21.67
2018-02-24T21:00:58.590Z,25.00
2018-02-24T21:03:26.915Z,18.07
2018-02-24T21:05:55.276Z,24.50
2018-02-24T21:08:23.599Z,23.83
2018-02-24T21:10:51.965Z,28.27
2018-02-24T21:13:20.339Z,26.43
2018-02-24T21:15:48.685Z,24.10
2018-02-24T21:18:17.067Z,20.10
2018-02-24T21:20:45.478Z,20.77
2018-02-24T21:23:13.818Z,18.93
2018-02-24T21:25:42.157Z,21.23
2018-02-24T21:28:10.499Z,17.50
2018-02-24T21:30:38.848Z,22.53
2018-02-24T21:33:07.286Z,14.87
2018-02-24T21:35:35.646Z,20.53
2018-02-24T21:38:04.003Z,22.07
2018-02-24T21:40:32.384Z,15.07
2018-02-24T21:43:00.709Z,19.40
2018-02-24T21:45:29.046Z,12.10
2018-02-24T21:47:57.404Z,19.17
2018-02-24T21:50:25.755Z,13.27
2018-02-24T21:52:54.064Z,16.07
2018-02-24T21:55:22.394Z,11.30
2018-02-24T21:57:50.722Z,23.80
2018-02-24T22:00:19.091Z,18.33
2018-02-24T22:02:47.463Z,12.50
2018-02-24T22:05:15.783Z,16.03
2018-02-24T22:07:44.100Z,15.70
2018-02-24T22:10:12.488Z,14.00
2018-02-24T22:12:40.864Z,14.70
2018-02-24T22:15:09.242Z,17.00
2018-02-24T22:17:37.626Z,15.87
2018-02-24T22:20:06.048Z,16.07
2018-02-24T22:22:34.352Z,19.93
2018-02-24T22:25:02.806Z,16.10
2018-02-24T22:27:31.138Z,10.77
2018-02-24T22:29:59.559Z,13.87
2018-02-24T22:32:27.896Z,14.00
2018-02-24T22:34:56.273Z,12.47
2018-02-24T22:37:24.659Z,8.90
2018-02-24T22:39:53.031Z,13.40
2018-02-24T22:42:21.454Z,8.90
2018-02-24T22:44:49.830Z,11.57
2018-02-24T22:47:18.173Z,9.53
2018-02-24T22:49:46.589Z,10.87
2018-02-24T22:52:15.038Z,7.83
2018-02-24T22:54:43.358Z,10.07
2018-02-24T22:57:11.686Z,8.60
2018-02-24T22:59:40.054Z,7.90
2018-02-24T23:02:08.362Z,9.13
2018-02-24T23:04:36.755Z,9.33
2018-02-24T23:07:05.138Z,11.20
2018-02-24T23:09:33.463Z,5.90
2018-02-24T23:12:01.791Z,10.77
2018-02-24T23:14:30.135Z,6.93
2018-02-24T23:16:58.447Z,7.50
2018-02-24T23:19:26.797Z,6.27
2018-02-24T23:21:55.124Z,12.20
2018-02-24T23:24:23.508Z,9.97
2018-02-24T23:26:51.853Z,14.13
2018-02-24T23:29:20.235Z,13.07
2018-02-24T23:31:48.574Z,11.70
2018-02-24T23:34:16.894Z,11.07
2018-02-24T23:36:45.231Z,10.87
2018-02-24T23:39:13.548Z,6.80
2018-02-24T23:41:41.920Z,15.23
2018-02-24T23:44:10.248Z,11.63
2018-02-24T23:46:38.556Z,8.40
2018-02-24T23:49:07.025Z,18.43
2018-02-24T23:51:35.337Z,11.27
2018-02-24T23:54:03.763Z,11.00
2018-02-24T23:56:32.159Z,9.20
2018-02-24T23:59:00.529Z,12.03
